Time;durP1;ratioP1;P1;durP2;ratioP2;P2;SDS_P1;SDS_P2;PMS_P1;PMS_P2;Temp;Humidity;BMP_temperature;BMP_pressure;BME280_temperature;BME280_humidity;BME280_pressure;Samples;Min_cycle;Max_cycle;Signal;HPM_P1;HPM_P2
2022/09/23 00:00:23;;;;;;;6.47;4.40;;;;;;;;;;4979066;28;21075;-35
2022/09/23 00:02:51;;;;;;;5.43;4.33;;;;;;;;;;4978304;28;21418;-35
2022/09/23 00:05:17;;;;;;;5.60;3.97;;;;;;;;;;4975248;28;20182;-35
2022/09/23 00:07:43;;;;;;;5.93;3.90;;;;;;;;;;4977473;28;20181;-35
2022/09/23 00:10:10;;;;;;;5.63;4.00;;;;;;;;;;4979741;28;20664;-35
2022/09/23 00:12:36;;;;;;;6.03;4.20;;;;;;;;;;4973644;28;20170;-35
2022/09/23 00:15:03;;;;;;;6.03;4.23;;;;;;;;;;4979596;28;20491;-34
2022/09/23 00:17:30;;;;;;;5.57;4.07;;;;;;;;;;4978547;28;20181;-35
2022/09/23 00:19:57;;;;;;;5.40;3.87;;;;;;;;;;4981270;28;20626;-35
2022/09/23 00:22:23;;;;;;;5.33;4.00;;;;;;;;;;4985881;28;20264;-34
2022/09/23 00:24:49;;;;;;;5.60;3.97;;;;;;;;;;4983876;28;20614;-35
2022/09/23 00:27:15;;;;;;;5.97;3.97;;;;;;;;;;4980041;28;20974;-35
2022/09/23 00:29:41;;;;;;;5.67;4.70;;;;;;;;;;4983488;28;20205;-35
2022/09/23 00:32:07;;;;;;;4.87;3.83;;;;;;;;;;4981653;28;20805;-35
2022/09/23 00:34:33;;;;;;;4.63;4.03;;;;;;;;;;4991607;28;21294;-35
2022/09/23 00:37:00;;;;;;;5.30;3.90;;;;;;;;;;4982468;28;20188;-35
2022/09/23 00:39:26;;;;;;;5.07;4.23;;;;;;;;;;4982798;28;20202;-35
2022/09/23 00:41:52;;;;;;;5.57;4.20;;;;;;;;;;4984410;28;20513;-35
2022/09/23 00:44:37;;;;;;;5.57;3.87;;;;;;;;;;4983835;28;20177;-35
2022/09/23 00:47:03;;;;;;;5.77;3.73;;;;;;;;;;4982876;28;20196;-35
2022/09/23 00:49:30;;;;;;;7.73;4.00;;;;;;;;;;4976988;28;20193;-34
2022/09/23 00:52:02;;;;;;;6.00;4.30;;;;;;;;;;4978772;28;20377;-35
2022/09/23 00:54:30;;;;;;;5.33;4.33;;;;;;;;;;4983662;28;20177;-35
2022/09/23 00:56:57;;;;;;;6.70;4.67;;;;;;;;;;4982123;28;20491;-35
2022/09/23 00:59:24;;;;;;;10.60;5.10;;;;;;;;;;4979390;28;20620;-34
2022/09/23 01:01:53;;;;;;;7.37;4.47;;;;;;;;;;4978660;28;20622;-35
2022/09/23 01:04:20;;;;;;;7.70;4.57;;;;;;;;;;4979287;28;20177;-35
2022/09/23 01:06:46;;;;;;;7.03;4.47;;;;;;;;;;4977048;28;20578;-34
2022/09/23 01:09:12;;;;;;;7.47;4.60;;;;;;;;;;4981621;28;20508;-35
2022/09/23 01:11:38;;;;;;;6.93;5.50;;;;;;;;;;4983898;28;20586;-34
2022/09/23 01:14:25;;;;;;;5.93;5.20;;;;;;;;;;4982654;28;20936;-35
2022/09/23 01:16:57;;;;;;;6.80;5.10;;;;;;;;;;4980820;28;20181;-34
2022/09/23 01:19:42;;;;;;;7.73;5.47;;;;;;;;;;4981448;28;20182;-34
2022/09/23 01:22:11;;;;;;;8.33;5.57;;;;;;;;;;4979217;28;20181;-35
2022/09/23 01:24:45;;;;;;;5.00;4.50;;;;;;;;;;4981352;28;20180;-35
2022/09/23 01:27:30;;;;;;;5.80;4.57;;;;;;;;;;4980627;28;20708;-34
2022/09/23 01:29:56;;;;;;;6.53;5.20;;;;;;;;;;4980096;28;20318;-34
2022/09/23 01:32:22;;;;;;;7.83;5.20;;;;;;;;;;4979579;28;20774;-35
2022/09/23 01:35:03;;;;;;;5.60;5.00;;;;;;;;;;4981818;28;20203;-34
2022/09/23 01:37:31;;;;;;;6.77;5.03;;;;;;;;;;4982562;28;20282;-34
2022/09/23 01:40:01;;;;;;;6.03;4.87;;;;;;;;;;4982387;28;20732;-35
2022/09/23 01:42:33;;;;;;;6.17;4.90;;;;;;;;;;4978746;28;20195;-34
2022/09/23 01:45:19;;;;;;;8.50;5.60;;;;;;;;;;4976366;28;20310;-35
2022/09/23 01:47:57;;;;;;;9.10;6.20;;;;;;;;;;4988750;28;20744;-35
2022/09/23 01:53:21;;;;;;;8.57;6.27;;;;;;;;;;4978580;28;20236;-35
2022/09/23 01:55:50;;;;;;;9.23;6.43;;;;;;;;;;4976559;28;20208;-35
2022/09/23 01:58:32;;;;;;;8.50;6.40;;;;;;;;;;4982573;28;20184;-36
2022/09/23 02:01:00;;;;;;;9.10;7.23;;;;;;;;;;4978073;28;20204;-36
2022/09/23 02:03:54;;;;;;;8.27;7.47;;;;;;;;;;4977284;28;20185;-35
2022/09/23 02:06:27;;;;;;;10.40;8.50;;;;;;;;;;4973805;28;20227;-35
2022/09/23 02:08:56;;;;;;;10.03;8.20;;;;;;;;;;4977541;28;20192;-35
2022/09/23 02:11:22;;;;;;;8.53;7.40;;;;;;;;;;4978718;28;20180;-35
2022/09/23 02:13:52;;;;;;;10.67;9.57;;;;;;;;;;4979589;28;20480;-35
2022/09/23 02:16:23;;;;;;;12.03;9.73;;;;;;;;;;4980659;28;20567;-35
2022/09/23 02:19:10;;;;;;;11.17;10.03;;;;;;;;;;4979256;28;20657;-35
2022/09/23 02:21:39;;;;;;;12.10;9.90;;;;;;;;;;4983353;28;21209;-35
2022/09/23 02:24:08;;;;;;;12.70;11.40;;;;;;;;;;4984533;28;20422;-35
2022/09/23 02:26:40;;;;;;;14.57;12.67;;;;;;;;;;4981249;28;20197;-35
2022/09/23 02:29:06;;;;;;;13.90;11.07;;;;;;;;;;4978542;28;20616;-35
2022/09/23 02:31:33;;;;;;;14.40;12.53;;;;;;;;;;4981158;28;20189;-35
2022/09/23 02:34:17;;;;;;;13.60;12.13;;;;;;;;;;4982142;28;20346;-35
2022/09/23 02:37:02;;;;;;;14.23;12.57;;;;;;;;;;4984767;28;20212;-35
2022/09/23 02:39:32;;;;;;;16.17;12.27;;;;;;;;;;4981545;28;20535;-35
2022/09/23 02:42:01;;;;;;;15.57;13.20;;;;;;;;;;4978207;28;20545;-35
2022/09/23 02:44:28;;;;;;;18.80;14.83;;;;;;;;;;4981582;28;20177;-35
2022/09/23 02:46:55;;;;;;;17.33;13.30;;;;;;;;;;4980419;28;20240;-35
2022/09/23 02:49:28;;;;;;;16.40;13.17;;;;;;;;;;4978792;28;20215;-35
2022/09/23 02:51:55;;;;;;;15.33;13.73;;;;;;;;;;4975690;28;20334;-35
2022/09/23 02:54:25;;;;;;;19.47;15.53;;;;;;;;;;4979975;28;20188;-35
2022/09/23 02:56:52;;;;;;;16.03;13.93;;;;;;;;;;4980342;28;20224;-35
2022/09/23 02:59:19;;;;;;;18.03;14.43;;;;;;;;;;4983886;28;21187;-35
2022/09/23 03:01:51;;;;;;;16.83;14.53;;;;;;;;;;4977508;28;21009;-35
2022/09/23 03:04:20;;;;;;;14.87;13.10;;;;;;;;;;4977613;28;20710;-35
2022/09/23 03:07:16;;;;;;;19.17;16.67;;;;;;;;;;4975987;28;20687;-35
2022/09/23 03:09:51;;;;;;;18.43;14.53;;;;;;;;;;4979225;28;20212;-35
2022/09/23 03:12:34;;;;;;;17.00;13.67;;;;;;;;;;4979199;28;20219;-35
2022/09/23 03:15:06;;;;;;;18.83;16.17;;;;;;;;;;4977225;28;20266;-35
2022/09/23 03:17:36;;;;;;;15.83;13.83;;;;;;;;;;5004653;28;20446;-35
2022/09/23 03:20:17;;;;;;;18.37;14.13;;;;;;;;;;4979558;28;21011;-35
2022/09/23 03:22:51;;;;;;;17.23;14.00;;;;;;;;;;4980393;28;20189;-35
2022/09/23 03:25:22;;;;;;;16.80;14.53;;;;;;;;;;4973064;28;20232;-35
2022/09/23 03:27:49;;;;;;;21.00;15.47;;;;;;;;;;4977321;28;20858;-35
2022/09/23 03:30:15;;;;;;;21.83;15.50;;;;;;;;;;4981580;28;20883;-35
2022/09/23 03:32:44;;;;;;;21.10;13.57;;;;;;;;;;4982291;28;20840;-35
2022/09/23 03:35:11;;;;;;;20.60;15.60;;;;;;;;;;4981283;28;20483;-34
2022/09/23 03:37:39;;;;;;;23.70;17.17;;;;;;;;;;4979096;28;20196;-35
2022/09/23 03:40:20;;;;;;;21.20;17.10;;;;;;;;;;4980380;28;20464;-35
2022/09/23 03:42:47;;;;;;;17.90;15.30;;;;;;;;;;4984798;28;20428;-35
2022/09/23 03:45:17;;;;;;;21.80;17.90;;;;;;;;;;4980056;28;20188;-35
2022/09/23 03:47:43;;;;;;;19.37;15.10;;;;;;;;;;4982621;28;20667;-35
2022/09/23 03:50:12;;;;;;;20.73;18.50;;;;;;;;;;4980115;28;20526;-35
2022/09/23 03:52:39;;;;;;;24.57;18.57;;;;;;;;;;4978168;28;20311;-35
2022/09/23 03:55:06;;;;;;;21.93;18.90;;;;;;;;;;4982224;28;20181;-35
2022/09/23 03:57:32;;;;;;;17.73;15.30;;;;;;;;;;4986788;28;20937;-35
2022/09/23 03:59:58;;;;;;;23.53;17.03;;;;;;;;;;4986435;28;20456;-35
2022/09/23 04:02:25;;;;;;;20.70;17.20;;;;;;;;;;4979140;28;20189;-35
2022/09/23 04:04:51;;;;;;;20.53;15.90;;;;;;;;;;4980325;28;20585;-35
2022/09/23 04:07:18;;;;;;;29.40;21.97;;;;;;;;;;4982628;28;20456;-35
2022/09/23 04:09:44;;;;;;;35.83;22.63;;;;;;;;;;4989938;28;20291;-35
2022/09/23 04:12:12;;;;;;;48.40;29.53;;;;;;;;;;4988771;28;20284;-35
2022/09/23 04:14:38;;;;;;;37.90;25.40;;;;;;;;;;4989605;28;20165;-35
2022/09/23 04:17:04;;;;;;;43.03;26.00;;;;;;;;;;4983685;28;20181;-35
2022/09/23 04:19:30;;;;;;;33.57;22.63;;;;;;;;;;4985708;28;21135;-35
2022/09/23 04:21:56;;;;;;;25.13;19.97;;;;;;;;;;4989495;28;20197;-35
2022/09/23 04:24:23;;;;;;;20.40;17.40;;;;;;;;;;4989072;28;20226;-35
2022/09/23 04:26:55;;;;;;;18.40;15.03;;;;;;;;;;4987529;28;20195;-35
2022/09/23 04:29:21;;;;;;;20.87;16.47;;;;;;;;;;4987591;28;21190;-35
2022/09/23 04:31:48;;;;;;;18.00;14.90;;;;;;;;;;4985448;28;21043;-35
2022/09/23 04:34:18;;;;;;;19.33;14.10;;;;;;;;;;4991051;28;20192;-35
2022/09/23 04:36:45;;;;;;;15.33;13.33;;;;;;;;;;4988787;28;21561;-35
2022/09/23 04:39:11;;;;;;;17.77;14.03;;;;;;;;;;4987886;28;21336;-35
2022/09/23 04:41:37;;;;;;;14.40;11.77;;;;;;;;;;4984468;28;20181;-36
2022/09/23 04:44:04;;;;;;;13.17;11.10;;;;;;;;;;4991036;28;20180;-35
2022/09/23 04:46:30;;;;;;;14.53;12.53;;;;;;;;;;4987955;28;20184;-35
2022/09/23 04:48:56;;;;;;;17.50;13.37;;;;;;;;;;4987105;28;20316;-35
2022/09/23 04:51:23;;;;;;;13.20;11.30;;;;;;;;;;4985612;28;20173;-35
2022/09/23 04:53:50;;;;;;;17.50;11.30;;;;;;;;;;4983727;28;21088;-35
2022/09/23 04:56:21;;;;;;;12.33;10.50;;;;;;;;;;4988813;28;20267;-35
2022/09/23 04:58:47;;;;;;;15.17;9.73;;;;;;;;;;4990475;28;20185;-35
2022/09/23 05:01:17;;;;;;;13.93;10.57;;;;;;;;;;4987118;28;20180;-35
2022/09/23 05:03:44;;;;;;;12.87;9.33;;;;;;;;;;4986442;28;20188;-35
2022/09/23 05:06:15;;;;;;;10.00;8.20;;;;;;;;;;4988893;28;20200;-35
2022/09/23 05:08:42;;;;;;;11.90;7.83;;;;;;;;;;4987458;28;20193;-35
2022/09/23 05:11:08;;;;;;;11.07;7.47;;;;;;;;;;4982003;28;20192;-35
2022/09/23 05:13:34;;;;;;;11.90;7.87;;;;;;;;;;4984794;28;20288;-35
2022/09/23 05:16:01;;;;;;;12.37;7.97;;;;;;;;;;4985484;28;20646;-35
2022/09/23 05:18:30;;;;;;;9.03;7.70;;;;;;;;;;4986837;28;20181;-35
2022/09/23 05:20:56;;;;;;;12.50;7.90;;;;;;;;;;4983367;28;20307;-35
2022/09/23 05:23:23;;;;;;;9.57;7.90;;;;;;;;;;4983762;28;20270;-35
2022/09/23 05:25:55;;;;;;;16.87;8.23;;;;;;;;;;4986951;28;20648;-35
2022/09/23 05:28:21;;;;;;;11.80;8.57;;;;;;;;;;4986114;28;20185;-35
2022/09/23 05:30:47;;;;;;;10.63;8.20;;;;;;;;;;4983764;28;20228;-35
2022/09/23 05:33:13;;;;;;;12.43;8.40;;;;;;;;;;4984689;28;20181;-35
2022/09/23 05:35:40;;;;;;;13.13;8.40;;;;;;;;;;4984085;28;20220;-35
2022/09/23 05:38:06;;;;;;;11.13;9.00;;;;;;;;;;4986138;28;20188;-35
2022/09/23 05:40:32;;;;;;;14.50;9.43;;;;;;;;;;4986563;28;20736;-35
2022/09/23 05:42:58;;;;;;;9.87;8.27;;;;;;;;;;4984966;28;20184;-35
2022/09/23 05:45:24;;;;;;;13.60;10.47;;;;;;;;;;4982799;28;20247;-35
2022/09/23 05:47:51;;;;;;;17.67;9.60;;;;;;;;;;4980099;28;20319;-35
2022/09/23 05:50:17;;;;;;;13.67;9.27;;;;;;;;;;4983344;28;20215;-35
2022/09/23 05:52:43;;;;;;;14.07;9.23;;;;;;;;;;4981461;28;20188;-34
2022/09/23 05:55:10;;;;;;;12.53;9.70;;;;;;;;;;4984266;28;20185;-35
2022/09/23 05:57:36;;;;;;;12.73;9.33;;;;;;;;;;4984385;28;20190;-35
2022/09/23 06:00:03;;;;;;;14.20;10.10;;;;;;;;;;4984302;28;20177;-35
2022/09/23 06:02:29;;;;;;;14.97;9.50;;;;;;;;;;4980970;28;21003;-35
2022/09/23 06:04:55;;;;;;;11.93;8.87;;;;;;;;;;4985642;28;21176;-35
2022/09/23 06:07:21;;;;;;;11.77;8.83;;;;;;;;;;4983553;28;20238;-35
2022/09/23 06:09:47;;;;;;;14.50;8.80;;;;;;;;;;4986365;28;20204;-35
2022/09/23 06:12:13;;;;;;;11.53;8.13;;;;;;;;;;4985324;28;20246;-35
2022/09/23 06:14:39;;;;;;;15.57;7.97;;;;;;;;;;4988005;28;20169;-35
2022/09/23 06:17:05;;;;;;;10.63;7.57;;;;;;;;;;4988897;28;21004;-35
2022/09/23 06:19:31;;;;;;;17.33;7.93;;;;;;;;;;4986467;28;20180;-35
2022/09/23 06:21:58;;;;;;;13.03;7.63;;;;;;;;;;4988273;28;20220;-35
2022/09/23 06:24:24;;;;;;;11.40;7.57;;;;;;;;;;4987166;28;20180;-35
2022/09/23 06:26:50;;;;;;;12.83;8.03;;;;;;;;;;5002619;28;20200;-35
2022/09/23 06:29:17;;;;;;;14.43;8.30;;;;;;;;;;4989818;28;20197;-35
2022/09/23 06:31:43;;;;;;;13.37;8.13;;;;;;;;;;4988003;28;20597;-35
2022/09/23 06:34:10;;;;;;;12.30;7.70;;;;;;;;;;4988502;28;20188;-35
2022/09/23 06:36:36;;;;;;;14.53;7.97;;;;;;;;;;4987098;28;20176;-35
2022/09/23 06:39:02;;;;;;;16.80;7.80;;;;;;;;;;4988620;28;20180;-35
2022/09/23 06:41:29;;;;;;;11.53;7.63;;;;;;;;;;4989901;28;20188;-35
2022/09/23 06:43:55;;;;;;;12.10;7.80;;;;;;;;;;4992179;28;21124;-35
2022/09/23 06:46:21;;;;;;;14.73;8.30;;;;;;;;;;4990333;28;21111;-35
2022/09/23 06:48:48;;;;;;;14.60;7.70;;;;;;;;;;5001627;28;20251;-35
2022/09/23 06:51:18;;;;;;;14.70;8.27;;;;;;;;;;4987535;28;21015;-35
2022/09/23 06:53:44;;;;;;;13.73;7.97;;;;;;;;;;4988176;28;20181;-35
2022/09/23 06:56:11;;;;;;;12.23;8.40;;;;;;;;;;4985495;28;20197;-35
2022/09/23 06:58:38;;;;;;;11.93;7.83;;;;;;;;;;4986557;28;20173;-35
2022/09/23 07:01:08;;;;;;;19.33;8.13;;;;;;;;;;4989042;28;20379;-35
2022/09/23 07:03:34;;;;;;;13.30;7.47;;;;;;;;;;4995815;28;20192;-35
2022/09/23 07:06:01;;;;;;;8.70;5.97;;;;;;;;;;4994020;28;20188;-36
2022/09/23 07:08:28;;;;;;;9.87;6.30;;;;;;;;;;4992742;28;20196;-36
2022/09/23 07:10:58;;;;;;;8.57;5.23;;;;;;;;;;4991324;28;20177;-36
2022/09/23 07:13:25;;;;;;;13.23;6.60;;;;;;;;;;4988549;28;21549;-36
2022/09/23 07:15:52;;;;;;;9.40;5.97;;;;;;;;;;4993046;28;21473;-36
2022/09/23 07:18:18;;;;;;;7.73;5.50;;;;;;;;;;4986162;28;20204;-36
2022/09/23 07:20:47;;;;;;;8.27;5.03;;;;;;;;;;4995258;28;20170;-36
2022/09/23 07:23:14;;;;;;;8.43;5.27;;;;;;;;;;4992470;28;20157;-36
2022/09/23 07:25:41;;;;;;;10.63;5.07;;;;;;;;;;4989799;28;20179;-36
2022/09/23 07:28:07;;;;;;;8.37;5.83;;;;;;;;;;4992164;28;20184;-36
2022/09/23 07:30:37;;;;;;;11.10;6.37;;;;;;;;;;4992993;28;20196;-36
2022/09/23 07:33:03;;;;;;;12.03;6.43;;;;;;;;;;4993632;28;20165;-36
2022/09/23 07:35:29;;;;;;;9.90;6.90;;;;;;;;;;4991053;28;20165;-36
2022/09/23 07:37:55;;;;;;;9.33;6.30;;;;;;;;;;4988048;28;20291;-36
2022/09/23 07:40:22;;;;;;;9.73;6.80;;;;;;;;;;4989631;28;20173;-36
2022/09/23 07:42:48;;;;;;;8.57;6.70;;;;;;;;;;4993645;28;20178;-36
2022/09/23 07:45:14;;;;;;;10.17;6.97;;;;;;;;;;4994991;28;20211;-34
2022/09/23 07:47:40;;;;;;;12.93;8.90;;;;;;;;;;4996475;28;20190;-34
2022/09/23 07:50:07;;;;;;;10.77;8.50;;;;;;;;;;4995081;28;20192;-34
2022/09/23 07:52:36;;;;;;;11.83;8.13;;;;;;;;;;4990120;28;20487;-35
2022/09/23 07:55:02;;;;;;;12.33;8.50;;;;;;;;;;4994382;28;20162;-35
2022/09/23 07:57:28;;;;;;;17.23;9.07;;;;;;;;;;4996621;28;20177;-36
2022/09/23 07:59:55;;;;;;;11.97;8.07;;;;;;;;;;4992133;28;21082;-36
2022/09/23 08:02:21;;;;;;;17.30;9.03;;;;;;;;;;4992776;28;20780;-36
2022/09/23 08:04:48;;;;;;;11.30;7.80;;;;;;;;;;4992474;28;20180;-36
2022/09/23 08:07:15;;;;;;;15.13;9.00;;;;;;;;;;4997464;28;20177;-35
2022/09/23 08:09:42;;;;;;;12.47;7.53;;;;;;;;;;4989369;28;20295;-36
2022/09/23 08:12:09;;;;;;;13.07;6.67;;;;;;;;;;4994191;28;20173;-36
2022/09/23 08:14:35;;;;;;;14.63;7.07;;;;;;;;;;4995082;28;20177;-36
2022/09/23 08:17:02;;;;;;;13.20;7.33;;;;;;;;;;4998097;28;20808;-36
2022/09/23 08:19:28;;;;;;;8.97;6.47;;;;;;;;;;4994875;28;20181;-36
2022/09/23 08:21:54;;;;;;;7.53;6.40;;;;;;;;;;4997399;28;20182;-36
2022/09/23 08:24:22;;;;;;;9.07;6.97;;;;;;;;;;4993545;28;20177;-36
2022/09/23 08:26:51;;;;;;;9.77;6.27;;;;;;;;;;4995696;28;20203;-36
2022/09/23 08:29:18;;;;;;;9.13;6.03;;;;;;;;;;4995199;28;21115;-36
2022/09/23 08:31:44;;;;;;;9.43;6.37;;;;;;;;;;4991894;28;20216;-36
2022/09/23 08:34:11;;;;;;;9.33;5.70;;;;;;;;;;4995283;28;20268;-36
2022/09/23 08:36:37;;;;;;;6.40;4.70;;;;;;;;;;4996498;28;20180;-36
2022/09/23 08:39:04;;;;;;;6.83;4.60;;;;;;;;;;4994855;28;20174;-36
2022/09/23 08:41:49;;;;;;;9.57;5.33;;;;;;;;;;4993823;28;20285;-36
2022/09/23 08:44:21;;;;;;;9.57;4.37;;;;;;;;;;4992579;28;20177;-36
2022/09/23 08:46:51;;;;;;;7.37;4.40;;;;;;;;;;4991196;28;20177;-36
2022/09/23 08:49:24;;;;;;;8.10;4.50;;;;;;;;;;4996537;28;20207;-34
2022/09/23 08:51:53;;;;;;;6.33;4.50;;;;;;;;;;4994741;28;20188;-36
2022/09/23 08:54:19;;;;;;;6.70;3.80;;;;;;;;;;4994047;28;21323;-35
2022/09/23 08:56:48;;;;;;;7.17;3.63;;;;;;;;;;4993535;28;20173;-35
2022/09/23 08:59:20;;;;;;;3.33;2.60;;;;;;;;;;4996273;28;20177;-35
2022/09/23 09:01:53;;;;;;;9.60;3.00;;;;;;;;;;4996042;28;21085;-35
2022/09/23 09:04:37;;;;;;;5.50;2.30;;;;;;;;;;4990943;28;20164;-35
2022/09/23 09:07:06;;;;;;;3.40;2.30;;;;;;;;;;4992601;28;20184;-35
2022/09/23 09:09:51;;;;;;;6.07;2.40;;;;;;;;;;4992154;28;20816;-35
2022/09/23 09:12:35;;;;;;;4.93;2.30;;;;;;;;;;4996292;28;20254;-35
2022/09/23 09:15:04;;;;;;;5.03;2.60;;;;;;;;;;4996090;28;20177;-35
2022/09/23 09:17:38;;;;;;;3.57;1.97;;;;;;;;;;4996715;28;20246;-35
2022/09/23 09:20:05;;;;;;;5.67;2.13;;;;;;;;;;4993142;28;20184;-34
2022/09/23 09:22:37;;;;;;;6.63;2.47;;;;;;;;;;4989629;28;20184;-36
2022/09/23 09:25:12;;;;;;;2.67;1.60;;;;;;;;;;4991980;28;20176;-36
2022/09/23 09:27:40;;;;;;;6.10;2.43;;;;;;;;;;4991440;28;20204;-36
2022/09/23 09:30:12;;;;;;;7.70;3.13;;;;;;;;;;4993845;28;20204;-35
2022/09/23 09:32:45;;;;;;;5.40;2.93;;;;;;;;;;4992541;28;20166;-35
2022/09/23 09:35:23;;;;;;;3.43;2.60;;;;;;;;;;4988385;28;20202;-36
2022/09/23 09:37:49;;;;;;;9.17;2.60;;;;;;;;;;4992357;28;20177;-36
2022/09/23 09:40:16;;;;;;;13.03;2.90;;;;;;;;;;4992789;28;20177;-36
2022/09/23 09:42:44;;;;;;;4.80;2.53;;;;;;;;;;4990689;28;20181;-35
2022/09/23 09:45:18;;;;;;;6.87;3.27;;;;;;;;;;4986936;28;20212;-36
2022/09/23 09:47:47;;;;;;;4.37;2.77;;;;;;;;;;4991182;28;20954;-36
2022/09/23 09:50:20;;;;;;;4.60;2.20;;;;;;;;;;4991070;28;20193;-35
2022/09/23 09:52:47;;;;;;;4.27;1.60;;;;;;;;;;4994116;28;20174;-35
2022/09/23 09:55:13;;;;;;;1.73;1.40;;;;;;;;;;4992922;28;20181;-35
2022/09/23 09:57:43;;;;;;;2.40;1.70;;;;;;;;;;4995251;28;20958;-35
2022/09/23 10:00:18;;;;;;;2.47;1.70;;;;;;;;;;4991515;28;21039;-35
2022/09/23 10:02:44;;;;;;;3.40;1.70;;;;;;;;;;4989011;28;20292;-35
2022/09/23 10:05:24;;;;;;;3.37;1.70;;;;;;;;;;4993462;28;20231;-37
2022/09/23 10:07:50;;;;;;;2.30;1.60;;;;;;;;;;4992565;28;21018;-36
2022/09/23 10:10:19;;;;;;;2.43;1.60;;;;;;;;;;4995587;28;20215;-35
2022/09/23 10:12:46;;;;;;;2.17;1.70;;;;;;;;;;4991548;28;20169;-35
2022/09/23 10:15:27;;;;;;;1.90;1.60;;;;;;;;;;4991301;28;20181;-36
2022/09/23 10:17:53;;;;;;;1.23;1.13;;;;;;;;;;4990870;28;20248;-35
2022/09/23 10:20:19;;;;;;;2.53;1.60;;;;;;;;;;5026826;28;20216;-35
2022/09/23 10:22:46;;;;;;;3.10;1.90;;;;;;;;;;4988627;28;20185;-35
2022/09/23 10:25:18;;;;;;;1.83;1.50;;;;;;;;;;4987669;28;20177;-35
2022/09/23 10:27:44;;;;;;;2.07;1.70;;;;;;;;;;4989892;28;20196;-36
2022/09/23 10:30:23;;;;;;;2.77;1.80;;;;;;;;;;4988112;28;20205;-36
2022/09/23 10:32:50;;;;;;;3.17;2.00;;;;;;;;;;4994290;28;20218;-35
2022/09/23 10:35:20;;;;;;;2.40;1.80;;;;;;;;;;4988559;28;21047;-35
2022/09/23 10:37:49;;;;;;;2.77;2.00;;;;;;;;;;4990967;28;20173;-36
2022/09/23 10:47:04;;;;;;;4.27;2.40;;;;;;;;;;4991384;28;20199;-34
2022/09/23 10:49:14;;;;;;;2.67;2.00;;;;;;;;;;4986105;28;21100;-35
2022/09/23 10:51:40;;;;;;;4.40;2.23;;;;;;;;;;4987770;28;20177;-35
2022/09/23 10:54:09;;;;;;;5.10;2.30;;;;;;;;;;4988742;28;20219;-36
2022/09/23 10:56:48;;;;;;;5.07;2.47;;;;;;;;;;4985965;28;20180;-35
2022/09/23 10:59:32;;;;;;;3.27;2.10;;;;;;;;;;4987701;28;20181;-34
2022/09/23 11:02:22;;;;;;;2.83;1.90;;;;;;;;;;4991851;28;20192;-35
2022/09/23 11:04:53;;;;;;;3.23;2.00;;;;;;;;;;4988937;28;20379;-36
2022/09/23 11:07:30;;;;;;;3.57;2.10;;;;;;;;;;4988338;28;20204;-36
2022/09/23 11:10:15;;;;;;;4.90;2.30;;;;;;;;;;4989758;28;20188;-36
2022/09/23 11:12:43;;;;;;;2.73;2.10;;;;;;;;;;4987952;28;20184;-36
2022/09/23 11:15:27;;;;;;;3.57;2.03;;;;;;;;;;4991130;28;20181;-44
2022/09/23 11:18:14;;;;;;;5.37;2.37;;;;;;;;;;4986975;28;20173;-44
2022/09/23 11:21:05;;;;;;;4.30;2.03;;;;;;;;;;4992038;28;20188;-44
2022/09/23 11:23:32;;;;;;;2.87;1.97;;;;;;;;;;4979013;28;20302;-43
2022/09/23 11:26:05;;;;;;;5.10;2.10;;;;;;;;;;4985484;28;20203;-44
2022/09/23 11:28:53;;;;;;;7.03;2.33;;;;;;;;;;4985593;28;20203;-44
2022/09/23 11:31:46;;;;;;;4.07;1.90;;;;;;;;;;4988503;28;20182;-44
2022/09/23 11:34:19;;;;;;;6.13;1.80;;;;;;;;;;4986396;28;20194;-44
2022/09/23 11:36:51;;;;;;;4.27;1.90;;;;;;;;;;4988763;28;20660;-44
2022/09/23 11:39:20;;;;;;;3.07;1.80;;;;;;;;;;4986121;28;21044;-44
2022/09/23 11:41:47;;;;;;;3.50;1.90;;;;;;;;;;4985980;28;20217;-44
2022/09/23 11:44:25;;;;;;;4.73;2.10;;;;;;;;;;4983916;28;20184;-44
2022/09/23 11:47:00;;;;;;;3.07;1.67;;;;;;;;;;4989783;28;20180;-44
2022/09/23 11:49:27;;;;;;;2.83;1.87;;;;;;;;;;4991653;28;20822;-44
2022/09/23 11:52:13;;;;;;;12.90;2.70;;;;;;;;;;4990317;28;20232;-44
2022/09/23 11:54:42;;;;;;;3.00;1.70;;;;;;;;;;4988095;28;20176;-44
2022/09/23 11:57:11;;;;;;;3.17;1.80;;;;;;;;;;4989894;28;20193;-44
2022/09/23 11:59:40;;;;;;;2.80;1.80;;;;;;;;;;4991635;28;20181;-44
2022/09/23 12:02:12;;;;;;;3.53;1.87;;;;;;;;;;4992930;28;20603;-44
2022/09/23 12:04:41;;;;;;;2.40;1.70;;;;;;;;;;4990708;28;20190;-44
2022/09/23 12:07:07;;;;;;;3.80;1.70;;;;;;;;;;4986368;28;20180;-44
2022/09/23 12:09:49;;;;;;;2.90;1.50;;;;;;;;;;4986334;28;20189;-44
2022/09/23 12:12:20;;;;;;;2.73;1.53;;;;;;;;;;4988092;28;21093;-44
2022/09/23 12:14:58;;;;;;;4.70;1.60;;;;;;;;;;4989254;28;20197;-44
2022/09/23 12:17:26;;;;;;;7.23;2.10;;;;;;;;;;4993517;28;20176;-44
2022/09/23 12:20:12;;;;;;;5.50;1.90;;;;;;;;;;4987963;28;21031;-44
2022/09/23 12:23:14;;;;;;;2.53;1.40;;;;;;;;;;4987233;28;20387;-43
2022/09/23 12:25:45;;;;;;;2.80;1.20;;;;;;;;;;4969797;28;20185;-44
2022/09/23 12:28:17;;;;;;;2.30;1.50;;;;;;;;;;4988262;28;21244;-43
2022/09/23 12:30:46;;;;;;;4.27;1.30;;;;;;;;;;4986578;28;20920;-44
2022/09/23 12:33:26;;;;;;;3.40;1.37;;;;;;;;;;4989624;28;20265;-43
2022/09/23 12:36:03;;;;;;;1.63;1.50;;;;;;;;;;4988569;28;20280;-44
2022/09/23 12:38:34;;;;;;;2.03;1.30;;;;;;;;;;4992819;28;20189;-44
2022/09/23 12:41:06;;;;;;;2.50;1.40;;;;;;;;;;4988900;28;20181;-44
2022/09/23 12:43:34;;;;;;;1.87;1.40;;;;;;;;;;4988530;28;20614;-44
2022/09/23 12:46:16;;;;;;;2.23;1.40;;;;;;;;;;4987177;28;20959;-44
2022/09/23 12:48:43;;;;;;;3.47;1.57;;;;;;;;;;4989813;28;20244;-44
2022/09/23 12:51:20;;;;;;;4.87;1.53;;;;;;;;;;4987805;28;20186;-44
2022/09/23 12:53:53;;;;;;;1.90;1.60;;;;;;;;;;4986764;28;20187;-44
2022/09/23 12:56:21;;;;;;;2.47;1.37;;;;;;;;;;4987556;28;20283;-44
2022/09/23 12:58:48;;;;;;;2.57;1.40;;;;;;;;;;4993319;28;21059;-44
2022/09/23 13:01:14;;;;;;;3.80;1.73;;;;;;;;;;4988834;28;20177;-42
2022/09/23 13:06:39;;;;;;;3.43;1.40;;;;;;;;;;4988982;28;20227;-43
2022/09/23 13:09:24;;;;;;;1.30;1.20;;;;;;;;;;4989406;28;20189;-44
2022/09/23 13:11:52;;;;;;;1.30;1.20;;;;;;;;;;4991915;28;20188;-44
2022/09/23 13:14:21;;;;;;;3.17;1.27;;;;;;;;;;4987148;28;20185;-42
2022/09/23 13:16:47;;;;;;;2.60;1.70;;;;;;;;;;4987849;28;20181;-43
2022/09/23 13:19:26;;;;;;;1.67;1.20;;;;;;;;;;4985884;28;20406;-43
2022/09/23 13:22:00;;;;;;;1.53;1.00;;;;;;;;;;4995488;28;20185;-43
2022/09/23 13:24:32;;;;;;;3.50;1.30;;;;;;;;;;4990074;28;20918;-44
2022/09/23 13:27:04;;;;;;;2.60;1.00;;;;;;;;;;4987263;28;21142;-44
2022/09/23 13:29:38;;;;;;;3.23;1.17;;;;;;;;;;4988542;28;20373;-44
2022/09/23 13:32:05;;;;;;;2.03;1.20;;;;;;;;;;4990288;28;21030;-44
2022/09/23 13:34:33;;;;;;;2.53;1.10;;;;;;;;;;4992361;28;20928;-44
2022/09/23 13:37:10;;;;;;;1.97;1.37;;;;;;;;;;4988585;28;21039;-44
2022/09/23 13:39:36;;;;;;;1.30;1.10;;;;;;;;;;4984913;28;20212;-43
2022/09/23 13:42:03;;;;;;;2.00;1.00;;;;;;;;;;4987281;28;21014;-44
2022/09/23 13:44:30;;;;;;;2.20;1.03;;;;;;;;;;4987996;28;21289;-44
2022/09/23 13:46:58;;;;;;;2.40;1.30;;;;;;;;;;4986922;28;20181;-44
2022/09/23 13:49:24;;;;;;;2.27;1.30;;;;;;;;;;4982910;28;20339;-44
2022/09/23 13:51:53;;;;;;;2.63;1.10;;;;;;;;;;4981500;28;20214;-43
2022/09/23 13:54:28;;;;;;;2.83;1.20;;;;;;;;;;4982386;28;20755;-43
2022/09/23 13:56:57;;;;;;;3.43;1.10;;;;;;;;;;4984712;28;20213;-43
2022/09/23 13:59:26;;;;;;;2.20;1.30;;;;;;;;;;4983891;28;20189;-43
2022/09/23 14:02:06;;;;;;;4.63;1.40;;;;;;;;;;4983820;28;21041;-43
2022/09/23 14:04:33;;;;;;;2.50;1.10;;;;;;;;;;4980349;28;20296;-43
2022/09/23 14:06:59;;;;;;;1.67;1.00;;;;;;;;;;4987758;28;20188;-43
2022/09/23 14:09:26;;;;;;;2.43;1.00;;;;;;;;;;4986999;28;20228;-43
2022/09/23 14:11:54;;;;;;;1.73;1.07;;;;;;;;;;4984838;28;20298;-43
2022/09/23 14:14:21;;;;;;;2.63;1.10;;;;;;;;;;4980438;28;20181;-43
2022/09/23 14:16:48;;;;;;;3.83;1.00;;;;;;;;;;4982314;28;20189;-43
2022/09/23 14:19:18;;;;;;;2.97;1.17;;;;;;;;;;4978129;28;20181;-43
2022/09/23 14:21:47;;;;;;;2.73;1.17;;;;;;;;;;4982740;28;20314;-43
2022/09/23 14:24:15;;;;;;;2.60;1.20;;;;;;;;;;4977936;28;20192;-43
2022/09/23 14:26:42;;;;;;;3.77;1.37;;;;;;;;;;4981999;28;21210;-43
2022/09/23 14:29:35;;;;;;;1.27;1.10;;;;;;;;;;4985362;28;21677;-44
2022/09/23 14:32:03;;;;;;;3.37;1.20;;;;;;;;;;4988902;28;20267;-43
2022/09/23 14:34:42;;;;;;;2.90;1.30;;;;;;;;;;4984854;28;20916;-43
2022/09/23 14:40:09;;;;;;;2.90;1.20;;;;;;;;;;4981952;28;20231;-43
2022/09/23 14:42:40;;;;;;;2.00;1.13;;;;;;;;;;4982325;28;20186;-43
2022/09/23 14:45:07;;;;;;;3.00;1.20;;;;;;;;;;4977860;28;20192;-42
2022/09/23 14:47:34;;;;;;;3.00;1.40;;;;;;;;;;4979560;28;20185;-42
2022/09/23 14:52:49;;;;;;;5.70;1.10;;;;;;;;;;4981897;28;20195;-43
2022/09/23 14:55:16;;;;;;;2.57;1.17;;;;;;;;;;4987568;28;20210;-43
2022/09/23 14:57:42;;;;;;;2.20;1.33;;;;;;;;;;4987353;28;20177;-42
2022/09/23 15:00:15;;;;;;;2.53;1.20;;;;;;;;;;4987611;28;20217;-43
2022/09/23 15:02:43;;;;;;;2.00;1.60;;;;;;;;;;4984163;28;20215;-43
2022/09/23 15:05:13;;;;;;;2.70;1.40;;;;;;;;;;4987412;28;20259;-43
2022/09/23 15:07:39;;;;;;;1.90;1.20;;;;;;;;;;4989350;28;20969;-42
2022/09/23 15:10:13;;;;;;;1.30;1.10;;;;;;;;;;4991182;28;20604;-41